Terminal Aerodrome Forecast
Issued by NWS Jackson, MS

Home | Current Version | Previous Version | Text Only | Print | Product List | Glossary On
Versions: 1 2 3 4 5 6 7 8 9 10 11 12 13
884
FTUS44 KJAN 310538
TAFGWO
TAF
KGWO 310538Z 3106/0106 02005KT 6SM -SHRA VCTS SCT030 BKN050CB
      BKN150
     FM311500 VRB05KT P6SM VCSH FEW025 SCT050 BKN250
     FM311900 18006KT P6SM SCT040 BKN250
     FM010000 VRB03KT P6SM FEW050 SCT250=

USA.gov is the U.S. government's official web portal to all federal, state and local government web resources and services.